createdAt,value
2022-09-18T00:04:19.369Z,3.90
2022-09-18T00:09:24.224Z,4.90
2022-09-18T00:14:29.986Z,3.90
2022-09-18T00:19:34.711Z,3.58
2022-09-18T00:24:39.678Z,4.43
2022-09-18T00:29:45.737Z,3.28
2022-09-18T00:34:50.133Z,3.88
2022-09-18T00:39:54.323Z,4.55
2022-09-18T00:45:01.007Z,3.30
2022-09-18T00:50:11.588Z,2.75
2022-09-18T00:55:17.049Z,3.38
2022-09-18T01:00:24.093Z,4.15
2022-09-18T01:05:40.066Z,3.17
2022-09-18T01:11:01.940Z,5.53
2022-09-18T01:16:18.067Z,4.97
2022-09-18T01:21:30.351Z,3.25
2022-09-18T01:26:55.105Z,2.63
2022-09-18T01:32:06.648Z,2.70
2022-09-18T01:37:18.838Z,3.13
2022-09-18T01:42:27.061Z,2.85
2022-09-18T01:47:38.996Z,3.80
2022-09-18T01:52:49.043Z,2.92
2022-09-18T01:57:59.576Z,5.67
2022-09-18T02:03:11.253Z,3.58
2022-09-18T02:08:21.494Z,3.92
2022-09-18T02:13:32.712Z,4.50
2022-09-18T02:18:43.046Z,6.70
2022-09-18T02:23:50.636Z,6.43
2022-09-18T02:28:56.864Z,5.47
2022-09-18T02:34:03.276Z,3.70
2022-09-18T02:39:22.529Z,3.05
2022-09-18T02:44:34.924Z,2.75
2022-09-18T02:49:49.805Z,3.13
2022-09-18T02:54:59.881Z,3.15
2022-09-18T03:00:08.420Z,3.60
2022-09-18T03:05:15.283Z,3.17
2022-09-18T03:10:32.278Z,4.05
2022-09-18T03:15:36.955Z,4.28
2022-09-18T03:20:44.379Z,2.95
2022-09-18T03:25:51.138Z,3.45
2022-09-18T03:30:56.070Z,3.30
2022-09-18T03:36:03.579Z,3.40
2022-09-18T03:41:09.278Z,3.92
2022-09-18T03:51:31.271Z,6.80
2022-09-18T03:56:39.209Z,7.10
2022-09-18T04:01:43.593Z,6.05
2022-09-18T04:07:10.915Z,6.43
2022-09-18T04:12:33.426Z,6.57
2022-09-18T04:17:58.859Z,5.90
2022-09-18T04:23:05.460Z,5.10
2022-09-18T04:28:12.343Z,5.50
2022-09-18T04:33:21.188Z,5.53
2022-09-18T04:38:29.999Z,5.20
2022-09-18T04:43:35.506Z,5.93
2022-09-18T04:48:39.822Z,4.90
2022-09-18T04:53:46.084Z,5.22
2022-09-18T04:58:51.247Z,6.32
2022-09-18T05:03:56.540Z,6.65
2022-09-18T05:09:18.120Z,7.35
2022-09-18T05:14:22.944Z,5.95
2022-09-18T05:19:30.625Z,6.55
2022-09-18T05:24:45.212Z,5.72
2022-09-18T05:29:51.248Z,4.70
2022-09-18T05:34:59.805Z,4.80
2022-09-18T05:40:08.092Z,4.70
2022-09-18T05:45:14.312Z,4.72
2022-09-18T05:50:19.000Z,5.05
2022-09-18T05:55:24.996Z,5.05
2022-09-18T06:00:31.951Z,5.28
2022-09-18T06:05:45.157Z,4.78
2022-09-18T06:10:53.834Z,5.45
2022-09-18T06:15:58.731Z,5.07
2022-09-18T06:21:29.757Z,5.85
2022-09-18T06:26:37.597Z,5.53
2022-09-18T06:31:44.001Z,5.57
2022-09-18T06:36:53.021Z,5.80
2022-09-18T06:42:28.113Z,5.85
2022-09-18T06:47:54.755Z,5.25
2022-09-18T06:53:05.880Z,5.95
2022-09-18T06:58:21.885Z,5.95
2022-09-18T07:03:29.051Z,6.30
2022-09-18T07:08:49.825Z,6.45
2022-09-18T07:14:16.536Z,6.43
2022-09-18T07:19:21.232Z,6.80
2022-09-18T07:24:25.767Z,6.18
2022-09-18T07:29:33.171Z,6.88
2022-09-18T07:34:38.822Z,6.30
2022-09-18T07:39:48.203Z,6.00
2022-09-18T07:45:13.986Z,5.50
2022-09-18T07:50:19.774Z,4.68
2022-09-18T07:55:25.567Z,4.68
2022-09-18T08:00:36.230Z,5.10
2022-09-18T08:05:41.213Z,4.47
2022-09-18T08:10:46.278Z,3.75
2022-09-18T08:16:13.779Z,3.72
2022-09-18T08:21:37.170Z,3.42
2022-09-18T08:26:47.484Z,2.40
2022-09-18T08:31:53.792Z,3.15
2022-09-18T08:36:59.587Z,3.50
2022-09-18T08:42:33.664Z,3.75
2022-09-18T08:47:46.093Z,5.80
2022-09-18T08:52:54.414Z,4.82
2022-09-18T08:58:10.192Z,4.28
2022-09-18T09:03:31.362Z,5.15
2022-09-18T09:09:14.927Z,5.45
2022-09-18T09:14:56.015Z,6.13
2022-09-18T09:20:08.677Z,6.15
2022-09-18T09:25:22.821Z,4.18
2022-09-18T09:31:01.115Z,6.85
2022-09-18T09:36:29.408Z,3.97
2022-09-18T09:41:41.275Z,5.03
2022-09-18T09:47:01.967Z,5.55
2022-09-18T09:52:19.665Z,6.32
2022-09-18T09:57:30.325Z,6.13
2022-09-18T10:02:46.493Z,4.38
2022-09-18T10:08:00.476Z,6.68
2022-09-18T10:13:12.195Z,3.00
2022-09-18T10:18:21.310Z,4.43
2022-09-18T10:23:34.081Z,2.93
2022-09-18T10:28:40.955Z,2.95
2022-09-18T10:33:47.256Z,3.05
2022-09-18T10:39:00.685Z,1.67
2022-09-18T10:44:26.580Z,2.55
2022-09-18T10:49:50.919Z,2.38
2022-09-18T10:55:21.239Z,2.28
2022-09-18T11:00:46.541Z,3.30
2022-09-18T11:05:55.329Z,2.63
2022-09-18T11:11:09.416Z,3.15
2022-09-18T11:16:25.498Z,2.50
2022-09-18T11:21:30.947Z,2.10
2022-09-18T11:26:37.357Z,2.35
2022-09-18T11:31:45.725Z,2.47
2022-09-18T11:37:00.740Z,2.80
2022-09-18T11:42:12.643Z,2.10
2022-09-18T11:47:28.256Z,2.47
2022-09-18T11:52:40.528Z,1.80
2022-09-18T11:57:52.624Z,1.80
2022-09-18T12:03:09.375Z,1.67
2022-09-18T12:08:19.630Z,1.60
2022-09-18T12:13:45.600Z,2.13
2022-09-18T12:18:58.398Z,2.00
2022-09-18T12:24:03.083Z,1.85
2022-09-18T12:29:21.545Z,1.77
2022-09-18T12:34:33.328Z,1.83
2022-09-18T12:40:04.416Z,1.55
2022-09-18T12:45:40.201Z,1.90
2022-09-18T12:51:02.301Z,2.53
2022-09-18T12:56:19.913Z,2.53
2022-09-18T13:01:32.048Z,2.42
2022-09-18T13:06:44.931Z,13.48
2022-09-18T13:11:53.598Z,6.18
2022-09-18T13:17:05.571Z,5.50
2022-09-18T13:22:15.801Z,3.70
2022-09-18T13:27:22.898Z,9.95
2022-09-18T13:32:41.157Z,7.30
2022-09-18T13:37:45.790Z,11.43
2022-09-18T13:42:49.824Z,5.07
2022-09-18T13:48:07.011Z,4.07
2022-09-18T13:53:32.206Z,7.75
2022-09-18T13:58:50.791Z,15.55
2022-09-18T14:03:58.042Z,5.90
2022-09-18T14:09:03.265Z,6.90
2022-09-18T14:14:15.037Z,15.60
2022-09-18T14:19:34.008Z,7.25
2022-09-18T14:24:57.946Z,5.63
2022-09-18T14:30:05.687Z,7.45
2022-09-18T14:35:28.431Z,13.82
2022-09-18T14:40:33.863Z,5.13
2022-09-18T14:45:39.186Z,5.13
2022-09-18T14:51:00.061Z,8.15
2022-09-18T14:56:08.642Z,5.72
2022-09-18T15:01:18.906Z,5.95
2022-09-18T15:06:32.037Z,6.40
2022-09-18T15:11:52.460Z,5.35
2022-09-18T15:17:02.875Z,6.95
2022-09-18T15:22:08.947Z,5.80
2022-09-18T15:27:17.132Z,9.77
2022-09-18T15:32:24.890Z,4.85
2022-09-18T15:37:32.391Z,5.82
2022-09-18T15:42:40.616Z,9.13
2022-09-18T15:47:45.685Z,7.90
2022-09-18T15:53:06.442Z,8.23
2022-09-18T15:58:26.533Z,8.52
2022-09-18T16:03:33.134Z,7.43
2022-09-18T16:08:40.958Z,8.07
2022-09-18T16:13:45.328Z,8.32
2022-09-18T16:18:55.212Z,8.90
2022-09-18T16:24:03.139Z,13.02
2022-09-18T16:29:18.186Z,11.60
2022-09-18T16:34:24.820Z,11.15
2022-09-18T16:39:30.799Z,26.92
2022-09-18T16:44:35.165Z,15.38
2022-09-18T16:49:44.524Z,30.02
2022-09-18T16:54:50.644Z,34.25
2022-09-18T16:59:56.135Z,27.15
2022-09-18T17:05:01.993Z,24.55
2022-09-18T17:10:09.461Z,13.75
2022-09-18T17:15:13.753Z,22.15
2022-09-18T17:20:18.979Z,21.30
2022-09-18T17:25:25.090Z,14.73
2022-09-18T17:30:29.368Z,9.82
2022-09-18T17:35:36.200Z,19.90
2022-09-18T17:40:42.627Z,18.15
2022-09-18T17:45:47.789Z,14.05
2022-09-18T17:50:59.168Z,13.48
2022-09-18T17:56:06.510Z,9.13
2022-09-18T18:01:12.607Z,9.32
2022-09-18T18:06:21.641Z,23.10
2022-09-18T18:11:29.772Z,10.93
2022-09-18T18:16:35.613Z,9.38
2022-09-18T18:21:42.400Z,9.13
2022-09-18T18:26:48.823Z,13.93
2022-09-18T18:31:53.834Z,12.07
2022-09-18T18:36:58.167Z,10.02
2022-09-18T18:42:03.925Z,8.88
2022-09-18T18:47:08.583Z,8.38
2022-09-18T18:52:13.162Z,9.20
2022-09-18T18:57:19.608Z,10.40
2022-09-18T19:02:24.974Z,10.25
2022-09-18T19:07:30.026Z,10.75
2022-09-18T19:12:37.695Z,12.13
2022-09-18T19:17:44.198Z,11.65
2022-09-18T19:22:57.824Z,12.65
2022-09-18T19:28:04.836Z,15.82
2022-09-18T19:33:09.886Z,16.40
2022-09-18T19:38:19.749Z,15.95
2022-09-18T19:43:30.439Z,19.13
2022-09-18T19:48:35.380Z,16.77
2022-09-18T19:53:40.104Z,15.82
2022-09-18T19:58:46.266Z,17.25
2022-09-18T20:03:55.572Z,17.42
2022-09-18T20:09:00.040Z,15.45
2022-09-18T20:14:05.665Z,15.95
2022-09-18T20:19:09.797Z,16.20
2022-09-18T20:24:14.635Z,15.50
2022-09-18T20:29:20.551Z,13.95
2022-09-18T20:34:25.315Z,15.10
2022-09-18T20:39:30.399Z,15.80
2022-09-18T20:44:37.012Z,17.77
2022-09-18T20:49:41.509Z,13.45
2022-09-18T20:54:45.723Z,11.32
2022-09-18T20:59:52.594Z,10.95
2022-09-18T21:04:56.798Z,10.05
2022-09-18T21:10:01.938Z,11.75
2022-09-18T21:15:14.043Z,13.20
2022-09-18T21:20:19.083Z,11.27
2022-09-18T21:25:24.947Z,8.95
2022-09-18T21:30:30.881Z,11.52
2022-09-18T21:35:35.854Z,10.70
2022-09-18T21:40:40.453Z,8.27
2022-09-18T21:45:47.015Z,8.45
2022-09-18T21:50:51.894Z,8.65
2022-09-18T21:56:01.638Z,8.55
2022-09-18T22:06:21.907Z,7.85
2022-09-18T22:11:27.985Z,7.30
2022-09-18T22:16:35.478Z,6.85
2022-09-18T22:21:42.542Z,8.35
2022-09-18T22:26:48.859Z,5.28
2022-09-18T22:31:55.927Z,4.88
2022-09-18T22:37:01.272Z,4.32
2022-09-18T22:42:05.688Z,5.72
2022-09-18T22:47:11.320Z,5.85
2022-09-18T22:52:15.757Z,5.32
2022-09-18T22:57:20.186Z,5.18
2022-09-18T23:02:26.204Z,5.57
2022-09-18T23:07:31.096Z,5.18
2022-09-18T23:12:36.271Z,7.05
2022-09-18T23:17:44.459Z,5.80
2022-09-18T23:22:48.950Z,4.32
2022-09-18T23:27:54.612Z,2.33
2022-09-18T23:33:00.818Z,3.65
2022-09-18T23:38:05.405Z,2.63
2022-09-18T23:43:09.538Z,2.30
2022-09-18T23:48:15.632Z,3.90
2022-09-18T23:53:22.351Z,3.40
2022-09-18T23:58:26.686Z,2.72
